sensor_id;sensor_type;location;lat;lon;timestamp;P1;durP1;ratioP1;P2;durP2;ratioP2
47749;SDS011;49810;48.160;10.812;2022-10-16T00:01:38;6.70;;;3.20;;
47749;SDS011;49810;48.160;10.812;2022-10-16T00:04:08;6.15;;;2.63;;
47749;SDS011;49810;48.160;10.812;2022-10-16T00:06:36;9.30;;;3.25;;
47749;SDS011;49810;48.160;10.812;2022-10-16T00:09:04;6.57;;;2.90;;
47749;SDS011;49810;48.160;10.812;2022-10-16T00:11:35;12.43;;;3.58;;
47749;SDS011;49810;48.160;10.812;2022-10-16T00:14:05;7.50;;;3.00;;
47749;SDS011;49810;48.160;10.812;2022-10-16T00:16:34;8.23;;;3.05;;
47749;SDS011;49810;48.160;10.812;2022-10-16T00:19:03;5.90;;;3.13;;
47749;SDS011;49810;48.160;10.812;2022-10-16T00:21:31;5.32;;;2.88;;
47749;SDS011;49810;48.160;10.812;2022-10-16T00:24:18;9.45;;;3.40;;
47749;SDS011;49810;48.160;10.812;2022-10-16T00:26:49;10.38;;;3.38;;
47749;SDS011;49810;48.160;10.812;2022-10-16T00:29:17;7.43;;;3.13;;
47749;SDS011;49810;48.160;10.812;2022-10-16T00:31:45;12.60;;;3.47;;
47749;SDS011;49810;48.160;10.812;2022-10-16T00:34:13;5.57;;;2.80;;
47749;SDS011;49810;48.160;10.812;2022-10-16T00:36:41;5.82;;;3.28;;
47749;SDS011;49810;48.160;10.812;2022-10-16T00:39:09;5.90;;;3.03;;
47749;SDS011;49810;48.160;10.812;2022-10-16T00:41:38;8.35;;;3.05;;
47749;SDS011;49810;48.160;10.812;2022-10-16T00:47:15;5.32;;;3.17;;
47749;SDS011;49810;48.160;10.812;2022-10-16T00:49:47;4.82;;;2.70;;
47749;SDS011;49810;48.160;10.812;2022-10-16T00:52:19;9.65;;;3.42;;
47749;SDS011;49810;48.160;10.812;2022-10-16T00:54:48;9.02;;;3.70;;
47749;SDS011;49810;48.160;10.812;2022-10-16T00:57:17;14.00;;;3.28;;
47749;SDS011;49810;48.160;10.812;2022-10-16T00:59:47;5.70;;;2.95;;
47749;SDS011;49810;48.160;10.812;2022-10-16T01:02:16;7.10;;;3.20;;
47749;SDS011;49810;48.160;10.812;2022-10-16T01:04:46;6.03;;;3.25;;
47749;SDS011;49810;48.160;10.812;2022-10-16T01:07:20;8.02;;;3.45;;
47749;SDS011;49810;48.160;10.812;2022-10-16T01:10:02;20.92;;;13.10;;
47749;SDS011;49810;48.160;10.812;2022-10-16T01:12:38;5.65;;;2.92;;
47749;SDS011;49810;48.160;10.812;2022-10-16T01:15:17;6.70;;;2.83;;
47749;SDS011;49810;48.160;10.812;2022-10-16T01:17:51;6.18;;;2.63;;
47749;SDS011;49810;48.160;10.812;2022-10-16T01:20:26;7.00;;;2.75;;
47749;SDS011;49810;48.160;10.812;2022-10-16T01:22:59;6.85;;;2.85;;
47749;SDS011;49810;48.160;10.812;2022-10-16T01:25:39;8.18;;;2.80;;
47749;SDS011;49810;48.160;10.812;2022-10-16T01:28:27;6.75;;;2.97;;
47749;SDS011;49810;48.160;10.812;2022-10-16T01:31:02;7.07;;;3.15;;
47749;SDS011;49810;48.160;10.812;2022-10-16T01:33:33;5.82;;;2.85;;
47749;SDS011;49810;48.160;10.812;2022-10-16T01:36:06;6.28;;;2.72;;
47749;SDS011;49810;48.160;10.812;2022-10-16T01:38:39;9.40;;;2.77;;
47749;SDS011;49810;48.160;10.812;2022-10-16T01:41:08;8.32;;;2.97;;
47749;SDS011;49810;48.160;10.812;2022-10-16T01:43:45;5.30;;;2.70;;
47749;SDS011;49810;48.160;10.812;2022-10-16T01:46:18;6.93;;;3.00;;
47749;SDS011;49810;48.160;10.812;2022-10-16T01:48:49;8.15;;;3.50;;
47749;SDS011;49810;48.160;10.812;2022-10-16T01:51:18;5.45;;;2.83;;
47749;SDS011;49810;48.160;10.812;2022-10-16T01:53:48;6.43;;;2.83;;
47749;SDS011;49810;48.160;10.812;2022-10-16T01:56:20;6.13;;;2.70;;
47749;SDS011;49810;48.160;10.812;2022-10-16T01:58:53;4.25;;;2.58;;
47749;SDS011;49810;48.160;10.812;2022-10-16T02:01:26;5.00;;;2.83;;
47749;SDS011;49810;48.160;10.812;2022-10-16T02:03:58;6.30;;;2.90;;
47749;SDS011;49810;48.160;10.812;2022-10-16T02:06:29;6.18;;;2.60;;
47749;SDS011;49810;48.160;10.812;2022-10-16T02:08:57;6.30;;;2.92;;
47749;SDS011;49810;48.160;10.812;2022-10-16T02:11:27;6.22;;;2.88;;
47749;SDS011;49810;48.160;10.812;2022-10-16T02:13:57;6.40;;;2.80;;
47749;SDS011;49810;48.160;10.812;2022-10-16T02:16:32;7.47;;;2.95;;
47749;SDS011;49810;48.160;10.812;2022-10-16T02:19:02;6.40;;;3.35;;
47749;SDS011;49810;48.160;10.812;2022-10-16T02:21:33;9.45;;;3.00;;
47749;SDS011;49810;48.160;10.812;2022-10-16T02:24:11;7.80;;;2.72;;
47749;SDS011;49810;48.160;10.812;2022-10-16T02:26:49;6.85;;;2.85;;
47749;SDS011;49810;48.160;10.812;2022-10-16T02:29:22;9.85;;;2.63;;
47749;SDS011;49810;48.160;10.812;2022-10-16T02:31:53;10.30;;;2.72;;
47749;SDS011;49810;48.160;10.812;2022-10-16T02:34:25;4.75;;;2.42;;
47749;SDS011;49810;48.160;10.812;2022-10-16T02:36:56;5.05;;;2.45;;
47749;SDS011;49810;48.160;10.812;2022-10-16T02:39:26;5.85;;;2.30;;
47749;SDS011;49810;48.160;10.812;2022-10-16T02:41:56;8.18;;;2.30;;
47749;SDS011;49810;48.160;10.812;2022-10-16T02:44:26;7.78;;;2.50;;
47749;SDS011;49810;48.160;10.812;2022-10-16T02:46:54;6.93;;;2.53;;
47749;SDS011;49810;48.160;10.812;2022-10-16T02:49:22;6.78;;;2.35;;
47749;SDS011;49810;48.160;10.812;2022-10-16T02:51:50;6.25;;;2.10;;
47749;SDS011;49810;48.160;10.812;2022-10-16T02:54:18;4.15;;;1.98;;
47749;SDS011;49810;48.160;10.812;2022-10-16T02:56:46;8.23;;;2.00;;
47749;SDS011;49810;48.160;10.812;2022-10-16T02:59:14;7.53;;;2.00;;
47749;SDS011;49810;48.160;10.812;2022-10-16T03:01:44;4.40;;;1.83;;
47749;SDS011;49810;48.160;10.812;2022-10-16T03:04:12;3.45;;;1.90;;
47749;SDS011;49810;48.160;10.812;2022-10-16T03:06:40;3.50;;;1.77;;
47749;SDS011;49810;48.160;10.812;2022-10-16T03:09:08;4.30;;;1.90;;
47749;SDS011;49810;48.160;10.812;2022-10-16T03:11:36;4.55;;;1.73;;
47749;SDS011;49810;48.160;10.812;2022-10-16T03:14:04;4.97;;;1.83;;
47749;SDS011;49810;48.160;10.812;2022-10-16T03:16:33;4.20;;;1.60;;
47749;SDS011;49810;48.160;10.812;2022-10-16T03:19:02;4.13;;;1.90;;
47749;SDS011;49810;48.160;10.812;2022-10-16T03:21:30;3.05;;;1.80;;
47749;SDS011;49810;48.160;10.812;2022-10-16T03:23:58;4.72;;;1.52;;
47749;SDS011;49810;48.160;10.812;2022-10-16T03:26:26;3.90;;;1.55;;
47749;SDS011;49810;48.160;10.812;2022-10-16T03:28:54;3.80;;;1.45;;
47749;SDS011;49810;48.160;10.812;2022-10-16T03:31:22;3.97;;;1.48;;
47749;SDS011;49810;48.160;10.812;2022-10-16T03:33:51;5.55;;;1.52;;
47749;SDS011;49810;48.160;10.812;2022-10-16T03:36:21;5.28;;;1.67;;
47749;SDS011;49810;48.160;10.812;2022-10-16T03:38:49;5.88;;;1.90;;
47749;SDS011;49810;48.160;10.812;2022-10-16T03:41:17;4.18;;;1.73;;
47749;SDS011;49810;48.160;10.812;2022-10-16T03:43:45;4.95;;;1.90;;
47749;SDS011;49810;48.160;10.812;2022-10-16T03:46:13;6.25;;;1.60;;
47749;SDS011;49810;48.160;10.812;2022-10-16T03:48:41;3.53;;;1.95;;
47749;SDS011;49810;48.160;10.812;2022-10-16T03:51:09;4.35;;;1.75;;
47749;SDS011;49810;48.160;10.812;2022-10-16T03:53:39;6.25;;;1.60;;
47749;SDS011;49810;48.160;10.812;2022-10-16T03:56:07;4.55;;;1.90;;
47749;SDS011;49810;48.160;10.812;2022-10-16T03:58:35;5.15;;;1.90;;
47749;SDS011;49810;48.160;10.812;2022-10-16T04:01:03;6.22;;;1.70;;
47749;SDS011;49810;48.160;10.812;2022-10-16T04:03:31;3.47;;;1.67;;
47749;SDS011;49810;48.160;10.812;2022-10-16T04:06:00;4.72;;;1.70;;
47749;SDS011;49810;48.160;10.812;2022-10-16T04:08:28;5.85;;;1.70;;
47749;SDS011;49810;48.160;10.812;2022-10-16T04:10:58;4.00;;;2.30;;
47749;SDS011;49810;48.160;10.812;2022-10-16T04:13:26;4.47;;;1.80;;
47749;SDS011;49810;48.160;10.812;2022-10-16T04:15:54;3.17;;;1.85;;
47749;SDS011;49810;48.160;10.812;2022-10-16T04:18:22;3.95;;;1.98;;
47749;SDS011;49810;48.160;10.812;2022-10-16T04:20:53;2.78;;;1.80;;
47749;SDS011;49810;48.160;10.812;2022-10-16T04:23:21;4.00;;;2.03;;
47749;SDS011;49810;48.160;10.812;2022-10-16T04:25:50;3.25;;;1.95;;
47749;SDS011;49810;48.160;10.812;2022-10-16T04:28:19;3.05;;;1.70;;
47749;SDS011;49810;48.160;10.812;2022-10-16T04:30:48;5.00;;;1.85;;
47749;SDS011;49810;48.160;10.812;2022-10-16T04:33:16;6.10;;;1.80;;
47749;SDS011;49810;48.160;10.812;2022-10-16T04:35:44;6.20;;;2.00;;
47749;SDS011;49810;48.160;10.812;2022-10-16T04:38:13;3.20;;;1.65;;
47749;SDS011;49810;48.160;10.812;2022-10-16T04:40:41;6.05;;;2.42;;
47749;SDS011;49810;48.160;10.812;2022-10-16T04:43:09;3.97;;;2.28;;
47749;SDS011;49810;48.160;10.812;2022-10-16T04:45:39;5.60;;;1.80;;
47749;SDS011;49810;48.160;10.812;2022-10-16T04:48:08;7.50;;;2.25;;
47749;SDS011;49810;48.160;10.812;2022-10-16T04:50:36;8.75;;;2.17;;
47749;SDS011;49810;48.160;10.812;2022-10-16T04:53:04;8.90;;;2.25;;
47749;SDS011;49810;48.160;10.812;2022-10-16T04:55:32;6.13;;;2.38;;
47749;SDS011;49810;48.160;10.812;2022-10-16T04:58:01;5.35;;;2.20;;
47749;SDS011;49810;48.160;10.812;2022-10-16T05:00:29;6.57;;;2.40;;
47749;SDS011;49810;48.160;10.812;2022-10-16T05:02:59;7.13;;;2.38;;
47749;SDS011;49810;48.160;10.812;2022-10-16T05:05:27;5.38;;;2.30;;
47749;SDS011;49810;48.160;10.812;2022-10-16T05:07:55;6.00;;;2.00;;
47749;SDS011;49810;48.160;10.812;2022-10-16T05:10:24;3.55;;;2.00;;
47749;SDS011;49810;48.160;10.812;2022-10-16T05:12:52;5.88;;;2.40;;
47749;SDS011;49810;48.160;10.812;2022-10-16T05:15:20;4.20;;;2.00;;
47749;SDS011;49810;48.160;10.812;2022-10-16T05:17:52;5.13;;;2.20;;
47749;SDS011;49810;48.160;10.812;2022-10-16T05:20:23;3.53;;;2.00;;
47749;SDS011;49810;48.160;10.812;2022-10-16T05:22:51;10.10;;;2.50;;
47749;SDS011;49810;48.160;10.812;2022-10-16T05:25:19;5.85;;;2.50;;
47749;SDS011;49810;48.160;10.812;2022-10-16T05:27:47;6.07;;;2.55;;
47749;SDS011;49810;48.160;10.812;2022-10-16T05:30:16;4.18;;;2.60;;
47749;SDS011;49810;48.160;10.812;2022-10-16T05:32:46;6.47;;;2.50;;
47749;SDS011;49810;48.160;10.812;2022-10-16T05:35:15;5.60;;;2.20;;
47749;SDS011;49810;48.160;10.812;2022-10-16T05:37:45;5.22;;;2.17;;
47749;SDS011;49810;48.160;10.812;2022-10-16T05:40:14;4.97;;;2.42;;
47749;SDS011;49810;48.160;10.812;2022-10-16T05:42:44;6.30;;;2.35;;
47749;SDS011;49810;48.160;10.812;2022-10-16T05:45:12;3.85;;;2.17;;
47749;SDS011;49810;48.160;10.812;2022-10-16T05:47:40;8.38;;;2.78;;
47749;SDS011;49810;48.160;10.812;2022-10-16T05:50:09;7.65;;;2.58;;
47749;SDS011;49810;48.160;10.812;2022-10-16T05:52:37;7.65;;;2.80;;
47749;SDS011;49810;48.160;10.812;2022-10-16T05:55:07;6.03;;;3.10;;
47749;SDS011;49810;48.160;10.812;2022-10-16T05:57:35;4.72;;;2.65;;
47749;SDS011;49810;48.160;10.812;2022-10-16T06:00:04;6.80;;;2.65;;
47749;SDS011;49810;48.160;10.812;2022-10-16T06:02:38;6.55;;;2.72;;
47749;SDS011;49810;48.160;10.812;2022-10-16T06:05:06;6.18;;;2.30;;
47749;SDS011;49810;48.160;10.812;2022-10-16T06:07:34;5.32;;;3.05;;
47749;SDS011;49810;48.160;10.812;2022-10-16T06:10:03;6.70;;;3.22;;
47749;SDS011;49810;48.160;10.812;2022-10-16T06:12:34;6.22;;;3.72;;
47749;SDS011;49810;48.160;10.812;2022-10-16T06:15:02;14.20;;;3.72;;
47749;SDS011;49810;48.160;10.812;2022-10-16T06:17:30;8.90;;;3.88;;
47749;SDS011;49810;48.160;10.812;2022-10-16T06:19:58;9.40;;;4.32;;
47749;SDS011;49810;48.160;10.812;2022-10-16T06:22:26;10.93;;;3.90;;
47749;SDS011;49810;48.160;10.812;2022-10-16T06:24:54;7.03;;;4.10;;
47749;SDS011;49810;48.160;10.812;2022-10-16T06:27:22;7.20;;;3.92;;
47749;SDS011;49810;48.160;10.812;2022-10-16T06:29:53;8.20;;;4.38;;
47749;SDS011;49810;48.160;10.812;2022-10-16T06:32:21;10.93;;;4.80;;
47749;SDS011;49810;48.160;10.812;2022-10-16T06:34:49;9.10;;;4.97;;
47749;SDS011;49810;48.160;10.812;2022-10-16T06:37:17;13.15;;;4.80;;
47749;SDS011;49810;48.160;10.812;2022-10-16T06:39:45;9.52;;;4.63;;
47749;SDS011;49810;48.160;10.812;2022-10-16T06:42:13;6.70;;;4.13;;
47749;SDS011;49810;48.160;10.812;2022-10-16T06:44:41;9.23;;;4.40;;
47749;SDS011;49810;48.160;10.812;2022-10-16T06:47:11;7.88;;;4.22;;
47749;SDS011;49810;48.160;10.812;2022-10-16T06:49:39;9.65;;;5.00;;
47749;SDS011;49810;48.160;10.812;2022-10-16T06:52:07;8.23;;;4.53;;
47749;SDS011;49810;48.160;10.812;2022-10-16T06:54:36;8.98;;;4.40;;
47749;SDS011;49810;48.160;10.812;2022-10-16T06:57:08;7.97;;;3.72;;
47749;SDS011;49810;48.160;10.812;2022-10-16T06:59:36;5.03;;;3.20;;
47749;SDS011;49810;48.160;10.812;2022-10-16T07:02:04;7.88;;;3.50;;
47749;SDS011;49810;48.160;10.812;2022-10-16T07:04:34;7.55;;;3.45;;
47749;SDS011;49810;48.160;10.812;2022-10-16T07:07:03;7.75;;;3.20;;
47749;SDS011;49810;48.160;10.812;2022-10-16T07:09:34;9.10;;;2.92;;
47749;SDS011;49810;48.160;10.812;2022-10-16T07:12:03;6.80;;;3.17;;
47749;SDS011;49810;48.160;10.812;2022-10-16T07:14:31;8.48;;;3.03;;
47749;SDS011;49810;48.160;10.812;2022-10-16T07:17:00;9.57;;;2.60;;
47749;SDS011;49810;48.160;10.812;2022-10-16T07:19:28;10.90;;;2.60;;
47749;SDS011;49810;48.160;10.812;2022-10-16T07:22:01;4.00;;;2.00;;
47749;SDS011;49810;48.160;10.812;2022-10-16T07:24:30;5.03;;;1.98;;
47749;SDS011;49810;48.160;10.812;2022-10-16T07:26:59;3.15;;;1.67;;
47749;SDS011;49810;48.160;10.812;2022-10-16T07:29:27;3.20;;;2.00;;
47749;SDS011;49810;48.160;10.812;2022-10-16T07:31:55;6.00;;;1.88;;
47749;SDS011;49810;48.160;10.812;2022-10-16T07:34:23;4.68;;;2.28;;
47749;SDS011;49810;48.160;10.812;2022-10-16T07:36:53;3.40;;;1.77;;
47749;SDS011;49810;48.160;10.812;2022-10-16T07:39:23;4.50;;;1.92;;
47749;SDS011;49810;48.160;10.812;2022-10-16T07:41:51;5.60;;;1.90;;
47749;SDS011;49810;48.160;10.812;2022-10-16T07:44:19;3.83;;;1.67;;
47749;SDS011;49810;48.160;10.812;2022-10-16T07:46:47;5.68;;;2.28;;
47749;SDS011;49810;48.160;10.812;2022-10-16T07:49:15;2.83;;;1.70;;
47749;SDS011;49810;48.160;10.812;2022-10-16T07:51:43;5.18;;;1.83;;
47749;SDS011;49810;48.160;10.812;2022-10-16T07:54:11;4.20;;;1.95;;
47749;SDS011;49810;48.160;10.812;2022-10-16T07:56:40;5.47;;;1.98;;
47749;SDS011;49810;48.160;10.812;2022-10-16T07:59:09;4.47;;;2.20;;
47749;SDS011;49810;48.160;10.812;2022-10-16T08:01:37;5.15;;;1.95;;
47749;SDS011;49810;48.160;10.812;2022-10-16T08:04:05;2.78;;;1.70;;
47749;SDS011;49810;48.160;10.812;2022-10-16T08:06:34;2.90;;;1.58;;
47749;SDS011;49810;48.160;10.812;2022-10-16T08:09:04;4.60;;;1.55;;
47749;SDS011;49810;48.160;10.812;2022-10-16T08:11:32;6.07;;;1.75;;
47749;SDS011;49810;48.160;10.812;2022-10-16T08:14:02;4.43;;;1.65;;
47749;SDS011;49810;48.160;10.812;2022-10-16T08:16:31;3.20;;;1.70;;
47749;SDS011;49810;48.160;10.812;2022-10-16T08:18:59;3.63;;;1.50;;
47749;SDS011;49810;48.160;10.812;2022-10-16T08:21:27;4.63;;;2.70;;
47749;SDS011;49810;48.160;10.812;2022-10-16T08:23:55;4.95;;;2.00;;
47749;SDS011;49810;48.160;10.812;2022-10-16T08:26:24;7.50;;;1.60;;
47749;SDS011;49810;48.160;10.812;2022-10-16T08:28:53;4.55;;;1.23;;
47749;SDS011;49810;48.160;10.812;2022-10-16T08:31:24;1.90;;;1.25;;
47749;SDS011;49810;48.160;10.812;2022-10-16T08:33:54;4.65;;;1.40;;
47749;SDS011;49810;48.160;10.812;2022-10-16T08:36:22;6.38;;;1.50;;
47749;SDS011;49810;48.160;10.812;2022-10-16T08:38:50;3.33;;;1.95;;
47749;SDS011;49810;48.160;10.812;2022-10-16T08:41:30;5.05;;;2.50;;
47749;SDS011;49810;48.160;10.812;2022-10-16T08:44:30;3.30;;;1.40;;
47749;SDS011;49810;48.160;10.812;2022-10-16T08:47:16;3.72;;;1.20;;
47749;SDS011;49810;48.160;10.812;2022-10-16T08:49:51;2.40;;;1.23;;
47749;SDS011;49810;48.160;10.812;2022-10-16T08:52:25;3.35;;;1.25;;
47749;SDS011;49810;48.160;10.812;2022-10-16T08:54:57;4.43;;;1.50;;
47749;SDS011;49810;48.160;10.812;2022-10-16T08:57:25;2.72;;;1.20;;
47749;SDS011;49810;48.160;10.812;2022-10-16T08:59:54;5.28;;;1.20;;
47749;SDS011;49810;48.160;10.812;2022-10-16T09:02:31;3.75;;;1.05;;
47749;SDS011;49810;48.160;10.812;2022-10-16T09:05:16;1.90;;;1.13;;
47749;SDS011;49810;48.160;10.812;2022-10-16T09:07:54;2.17;;;1.20;;
47749;SDS011;49810;48.160;10.812;2022-10-16T09:10:38;2.33;;;0.98;;
47749;SDS011;49810;48.160;10.812;2022-10-16T09:13:19;2.70;;;0.70;;
47749;SDS011;49810;48.160;10.812;2022-10-16T09:15:53;3.55;;;1.02;;
47749;SDS011;49810;48.160;10.812;2022-10-16T09:18:29;2.25;;;0.77;;
47749;SDS011;49810;48.160;10.812;2022-10-16T09:21:05;1.88;;;0.90;;
47749;SDS011;49810;48.160;10.812;2022-10-16T09:23:38;1.38;;;0.93;;
47749;SDS011;49810;48.160;10.812;2022-10-16T09:26:09;1.60;;;0.80;;
47749;SDS011;49810;48.160;10.812;2022-10-16T09:28:39;1.52;;;0.75;;
47749;SDS011;49810;48.160;10.812;2022-10-16T09:31:11;2.55;;;1.02;;
47749;SDS011;49810;48.160;10.812;2022-10-16T09:33:45;3.67;;;1.02;;
47749;SDS011;49810;48.160;10.812;2022-10-16T09:36:16;1.83;;;0.80;;
47749;SDS011;49810;48.160;10.812;2022-10-16T09:38:45;2.08;;;0.80;;
47749;SDS011;49810;48.160;10.812;2022-10-16T09:41:15;1.23;;;0.57;;
47749;SDS011;49810;48.160;10.812;2022-10-16T09:43:47;2.03;;;0.90;;
47749;SDS011;49810;48.160;10.812;2022-10-16T09:46:21;4.10;;;0.90;;
47749;SDS011;49810;48.160;10.812;2022-10-16T09:48:55;2.28;;;0.82;;
47749;SDS011;49810;48.160;10.812;2022-10-16T09:51:25;1.23;;;0.73;;
47749;SDS011;49810;48.160;10.812;2022-10-16T09:53:55;5.15;;;1.20;;
47749;SDS011;49810;48.160;10.812;2022-10-16T09:56:26;1.80;;;0.80;;
47749;SDS011;49810;48.160;10.812;2022-10-16T09:58:56;2.33;;;0.90;;
47749;SDS011;49810;48.160;10.812;2022-10-16T10:01:27;3.50;;;0.80;;
47749;SDS011;49810;48.160;10.812;2022-10-16T10:04:00;1.10;;;0.60;;
47749;SDS011;49810;48.160;10.812;2022-10-16T10:06:30;2.17;;;0.80;;
47749;SDS011;49810;48.160;10.812;2022-10-16T10:09:15;2.40;;;0.82;;
47749;SDS011;49810;48.160;10.812;2022-10-16T10:11:48;2.78;;;0.88;;
47749;SDS011;49810;48.160;10.812;2022-10-16T10:14:25;2.83;;;1.05;;
47749;SDS011;49810;48.160;10.812;2022-10-16T10:17:07;1.30;;;0.80;;
47749;SDS011;49810;48.160;10.812;2022-10-16T10:19:40;2.63;;;0.98;;
47749;SDS011;49810;48.160;10.812;2022-10-16T10:22:23;1.20;;;0.70;;
47749;SDS011;49810;48.160;10.812;2022-10-16T10:24:57;4.40;;;0.93;;
47749;SDS011;49810;48.160;10.812;2022-10-16T10:27:37;2.10;;;0.70;;
47749;SDS011;49810;48.160;10.812;2022-10-16T10:30:14;4.20;;;0.65;;
47749;SDS011;49810;48.160;10.812;2022-10-16T10:32:50;2.05;;;1.00;;
47749;SDS011;49810;48.160;10.812;2022-10-16T10:35:35;1.42;;;0.63;;
47749;SDS011;49810;48.160;10.812;2022-10-16T10:38:16;2.60;;;0.77;;
47749;SDS011;49810;48.160;10.812;2022-10-16T10:40:52;4.40;;;0.80;;
47749;SDS011;49810;48.160;10.812;2022-10-16T10:43:37;1.65;;;0.80;;
47749;SDS011;49810;48.160;10.812;2022-10-16T10:46:14;5.00;;;0.90;;
47749;SDS011;49810;48.160;10.812;2022-10-16T10:51:48;2.17;;;0.60;;
47749;SDS011;49810;48.160;10.812;2022-10-16T10:54:27;2.67;;;0.70;;
47749;SDS011;49810;48.160;10.812;2022-10-16T10:57:06;1.52;;;0.70;;
47749;SDS011;49810;48.160;10.812;2022-10-16T11:02:21;2.20;;;0.70;;
47749;SDS011;49810;48.160;10.812;2022-10-16T11:05:00;1.23;;;0.70;;
47749;SDS011;49810;48.160;10.812;2022-10-16T11:08:04;1.38;;;0.85;;
47749;SDS011;49810;48.160;10.812;2022-10-16T11:10:42;3.28;;;0.90;;
47749;SDS011;49810;48.160;10.812;2022-10-16T11:13:17;3.08;;;1.13;;
47749;SDS011;49810;48.160;10.812;2022-10-16T11:15:53;4.97;;;1.00;;
47749;SDS011;49810;48.160;10.812;2022-10-16T11:18:24;1.85;;;1.10;;
47749;SDS011;49810;48.160;10.812;2022-10-16T11:21:00;2.85;;;1.30;;
47749;SDS011;49810;48.160;10.812;2022-10-16T11:23:35;5.07;;;0.90;;
47749;SDS011;49810;48.160;10.812;2022-10-16T11:26:11;1.67;;;0.82;;
47749;SDS011;49810;48.160;10.812;2022-10-16T11:28:45;3.50;;;1.08;;
47749;SDS011;49810;48.160;10.812;2022-10-16T11:31:21;3.75;;;0.90;;
47749;SDS011;49810;48.160;10.812;2022-10-16T11:34:02;1.75;;;0.73;;
47749;SDS011;49810;48.160;10.812;2022-10-16T11:36:36;3.30;;;0.80;;
47749;SDS011;49810;48.160;10.812;2022-10-16T11:39:16;1.95;;;0.80;;
47749;SDS011;49810;48.160;10.812;2022-10-16T11:41:49;1.55;;;0.82;;
47749;SDS011;49810;48.160;10.812;2022-10-16T11:44:27;2.38;;;0.70;;
47749;SDS011;49810;48.160;10.812;2022-10-16T11:47:05;2.45;;;0.80;;
47749;SDS011;49810;48.160;10.812;2022-10-16T11:50:05;1.00;;;0.70;;
47749;SDS011;49810;48.160;10.812;2022-10-16T11:52:48;1.48;;;0.73;;
47749;SDS011;49810;48.160;10.812;2022-10-16T11:55:23;1.02;;;0.63;;
47749;SDS011;49810;48.160;10.812;2022-10-16T11:57:57;1.80;;;0.63;;
47749;SDS011;49810;48.160;10.812;2022-10-16T12:00:31;2.05;;;0.80;;
47749;SDS011;49810;48.160;10.812;2022-10-16T12:05:46;1.45;;;0.68;;
47749;SDS011;49810;48.160;10.812;2022-10-16T12:08:22;3.15;;;0.75;;
47749;SDS011;49810;48.160;10.812;2022-10-16T12:10:52;1.30;;;0.88;;
47749;SDS011;49810;48.160;10.812;2022-10-16T12:13:28;3.88;;;0.90;;
47749;SDS011;49810;48.160;10.812;2022-10-16T12:16:07;1.75;;;0.90;;
47749;SDS011;49810;48.160;10.812;2022-10-16T12:18:48;5.95;;;0.88;;
47749;SDS011;49810;48.160;10.812;2022-10-16T12:21:17;2.13;;;0.70;;
47749;SDS011;49810;48.160;10.812;2022-10-16T12:23:47;3.38;;;0.57;;
47749;SDS011;49810;48.160;10.812;2022-10-16T12:26:25;1.52;;;0.80;;
47749;SDS011;49810;48.160;10.812;2022-10-16T12:28:55;2.00;;;0.80;;
47749;SDS011;49810;48.160;10.812;2022-10-16T12:31:37;3.85;;;0.80;;
47749;SDS011;49810;48.160;10.812;2022-10-16T12:34:25;3.50;;;1.00;;
47749;SDS011;49810;48.160;10.812;2022-10-16T12:36:56;3.17;;;0.90;;
47749;SDS011;49810;48.160;10.812;2022-10-16T12:39:37;0.82;;;0.60;;
47749;SDS011;49810;48.160;10.812;2022-10-16T12:42:20;1.10;;;0.70;;
47749;SDS011;49810;48.160;10.812;2022-10-16T12:44:50;0.95;;;0.47;;
47749;SDS011;49810;48.160;10.812;2022-10-16T12:47:19;1.48;;;0.70;;
47749;SDS011;49810;48.160;10.812;2022-10-16T12:49:50;1.38;;;0.65;;
47749;SDS011;49810;48.160;10.812;2022-10-16T12:52:27;1.48;;;0.80;;
47749;SDS011;49810;48.160;10.812;2022-10-16T12:54:56;1.75;;;0.52;;
47749;SDS011;49810;48.160;10.812;2022-10-16T12:57:34;3.40;;;0.73;;
47749;SDS011;49810;48.160;10.812;2022-10-16T13:00:14;3.33;;;1.00;;
47749;SDS011;49810;48.160;10.812;2022-10-16T13:03:11;2.22;;;0.70;;
47749;SDS011;49810;48.160;10.812;2022-10-16T13:05:58;2.35;;;0.60;;
47749;SDS011;49810;48.160;10.812;2022-10-16T13:08:41;1.10;;;0.60;;
47749;SDS011;49810;48.160;10.812;2022-10-16T13:11:23;1.40;;;0.43;;
47749;SDS011;49810;48.160;10.812;2022-10-16T13:14:09;1.38;;;0.80;;
47749;SDS011;49810;48.160;10.812;2022-10-16T13:16:50;1.35;;;0.60;;
47749;SDS011;49810;48.160;10.812;2022-10-16T13:19:28;1.75;;;0.60;;
47749;SDS011;49810;48.160;10.812;2022-10-16T13:22:05;1.05;;;0.60;;
47749;SDS011;49810;48.160;10.812;2022-10-16T13:24:49;1.25;;;0.55;;
47749;SDS011;49810;48.160;10.812;2022-10-16T13:27:30;3.17;;;0.80;;
47749;SDS011;49810;48.160;10.812;2022-10-16T13:30:11;1.65;;;0.60;;
47749;SDS011;49810;48.160;10.812;2022-10-16T13:32:43;1.33;;;0.60;;
47749;SDS011;49810;48.160;10.812;2022-10-16T13:35:18;1.35;;;0.80;;
47749;SDS011;49810;48.160;10.812;2022-10-16T13:37:48;2.70;;;0.70;;
47749;SDS011;49810;48.160;10.812;2022-10-16T13:40:20;2.35;;;0.65;;
47749;SDS011;49810;48.160;10.812;2022-10-16T13:42:50;2.70;;;0.85;;
47749;SDS011;49810;48.160;10.812;2022-10-16T13:45:23;2.85;;;0.60;;
47749;SDS011;49810;48.160;10.812;2022-10-16T13:48:01;1.05;;;0.60;;
47749;SDS011;49810;48.160;10.812;2022-10-16T13:50:30;1.92;;;0.70;;
47749;SDS011;49810;48.160;10.812;2022-10-16T13:53:05;1.60;;;0.60;;
47749;SDS011;49810;48.160;10.812;2022-10-16T13:55:33;2.10;;;0.65;;
47749;SDS011;49810;48.160;10.812;2022-10-16T13:58:04;1.48;;;0.70;;
47749;SDS011;49810;48.160;10.812;2022-10-16T14:00:36;2.53;;;0.73;;
47749;SDS011;49810;48.160;10.812;2022-10-16T14:03:05;2.38;;;0.65;;
47749;SDS011;49810;48.160;10.812;2022-10-16T14:08:14;2.28;;;0.65;;
47749;SDS011;49810;48.160;10.812;2022-10-16T14:10:46;1.65;;;0.70;;
47749;SDS011;49810;48.160;10.812;2022-10-16T14:13:17;1.88;;;0.90;;
47749;SDS011;49810;48.160;10.812;2022-10-16T14:15:49;1.30;;;0.63;;
47749;SDS011;49810;48.160;10.812;2022-10-16T14:18:21;1.73;;;0.60;;
47749;SDS011;49810;48.160;10.812;2022-10-16T14:20:54;1.20;;;0.60;;
47749;SDS011;49810;48.160;10.812;2022-10-16T14:23:28;6.47;;;0.70;;
47749;SDS011;49810;48.160;10.812;2022-10-16T14:26:05;2.85;;;0.60;;
47749;SDS011;49810;48.160;10.812;2022-10-16T14:28:40;1.88;;;0.82;;
47749;SDS011;49810;48.160;10.812;2022-10-16T14:31:25;4.50;;;0.80;;
47749;SDS011;49810;48.160;10.812;2022-10-16T14:33:55;1.65;;;0.80;;
47749;SDS011;49810;48.160;10.812;2022-10-16T14:36:23;2.67;;;0.63;;
47749;SDS011;49810;48.160;10.812;2022-10-16T14:38:56;5.13;;;1.00;;
47749;SDS011;49810;48.160;10.812;2022-10-16T14:41:28;1.58;;;0.70;;
47749;SDS011;49810;48.160;10.812;2022-10-16T14:44:00;3.08;;;0.75;;
47749;SDS011;49810;48.160;10.812;2022-10-16T14:46:33;4.63;;;0.77;;
47749;SDS011;49810;48.160;10.812;2022-10-16T14:49:05;4.65;;;0.90;;
47749;SDS011;49810;48.160;10.812;2022-10-16T14:51:43;0.80;;;0.60;;
47749;SDS011;49810;48.160;10.812;2022-10-16T14:54:13;1.90;;;0.82;;
47749;SDS011;49810;48.160;10.812;2022-10-16T14:56:43;1.10;;;0.70;;
47749;SDS011;49810;48.160;10.812;2022-10-16T14:59:15;6.13;;;1.17;;
47749;SDS011;49810;48.160;10.812;2022-10-16T15:01:48;1.42;;;0.70;;
47749;SDS011;49810;48.160;10.812;2022-10-16T15:04:16;2.35;;;0.77;;
47749;SDS011;49810;48.160;10.812;2022-10-16T15:06:45;1.55;;;0.70;;
47749;SDS011;49810;48.160;10.812;2022-10-16T15:09:13;2.60;;;0.98;;
47749;SDS011;49810;48.160;10.812;2022-10-16T15:11:41;3.35;;;0.85;;
47749;SDS011;49810;48.160;10.812;2022-10-16T15:14:11;3.00;;;0.60;;
47749;SDS011;49810;48.160;10.812;2022-10-16T15:16:41;4.28;;;1.15;;